sensor_id;sensor_type;location;lat;lon;timestamp;P1;durP1;ratioP1;P2;durP2;ratioP2
47259;SDS011;32999;52.412;4.890;2022-11-13T00:02:34;22.38;;;10.65;;
47259;SDS011;32999;52.412;4.890;2022-11-13T00:07:36;16.13;;;9.20;;
47259;SDS011;32999;52.412;4.890;2022-11-13T00:12:38;15.80;;;8.98;;
47259;SDS011;32999;52.412;4.890;2022-11-13T00:17:41;14.85;;;9.63;;
47259;SDS011;32999;52.412;4.890;2022-11-13T00:22:43;14.32;;;9.38;;
47259;SDS011;32999;52.412;4.890;2022-11-13T00:27:45;16.20;;;9.23;;
47259;SDS011;32999;52.412;4.890;2022-11-13T00:32:51;15.63;;;8.88;;
47259;SDS011;32999;52.412;4.890;2022-11-13T00:37:53;21.90;;;11.65;;
47259;SDS011;32999;52.412;4.890;2022-11-13T00:42:54;16.75;;;10.38;;
47259;SDS011;32999;52.412;4.890;2022-11-13T00:47:58;15.00;;;9.38;;
47259;SDS011;32999;52.412;4.890;2022-11-13T00:53:00;16.65;;;8.65;;
47259;SDS011;32999;52.412;4.890;2022-11-13T00:58:03;17.30;;;10.30;;
47259;SDS011;32999;52.412;4.890;2022-11-13T01:03:06;17.52;;;9.10;;
47259;SDS011;32999;52.412;4.890;2022-11-13T01:08:09;13.70;;;8.57;;
47259;SDS011;32999;52.412;4.890;2022-11-13T01:13:15;16.45;;;8.98;;
47259;SDS011;32999;52.412;4.890;2022-11-13T01:18:18;16.10;;;9.48;;
47259;SDS011;32999;52.412;4.890;2022-11-13T01:23:20;15.73;;;8.43;;
47259;SDS011;32999;52.412;4.890;2022-11-13T01:28:24;18.17;;;8.35;;
47259;SDS011;32999;52.412;4.890;2022-11-13T01:33:27;16.17;;;9.00;;
47259;SDS011;32999;52.412;4.890;2022-11-13T01:38:29;14.85;;;8.48;;
47259;SDS011;32999;52.412;4.890;2022-11-13T01:43:31;16.35;;;8.13;;
47259;SDS011;32999;52.412;4.890;2022-11-13T01:48:38;15.75;;;8.32;;
47259;SDS011;32999;52.412;4.890;2022-11-13T01:53:42;18.85;;;8.05;;
47259;SDS011;32999;52.412;4.890;2022-11-13T01:58:47;14.30;;;7.95;;
47259;SDS011;32999;52.412;4.890;2022-11-13T02:03:55;16.60;;;7.75;;
47259;SDS011;32999;52.412;4.890;2022-11-13T02:08:57;13.95;;;8.43;;
47259;SDS011;32999;52.412;4.890;2022-11-13T02:13:59;14.90;;;8.95;;
47259;SDS011;32999;52.412;4.890;2022-11-13T02:19:02;19.13;;;8.60;;
47259;SDS011;32999;52.412;4.890;2022-11-13T02:24:16;15.32;;;7.03;;
47259;SDS011;32999;52.412;4.890;2022-11-13T02:29:23;13.85;;;7.82;;
47259;SDS011;32999;52.412;4.890;2022-11-13T02:34:25;17.10;;;8.43;;
47259;SDS011;32999;52.412;4.890;2022-11-13T02:39:28;10.77;;;7.13;;
47259;SDS011;32999;52.412;4.890;2022-11-13T02:44:30;16.30;;;7.20;;
47259;SDS011;32999;52.412;4.890;2022-11-13T02:49:31;15.20;;;7.28;;
47259;SDS011;32999;52.412;4.890;2022-11-13T02:54:34;14.30;;;7.72;;
47259;SDS011;32999;52.412;4.890;2022-11-13T02:59:36;11.38;;;6.38;;
47259;SDS011;32999;52.412;4.890;2022-11-13T03:04:38;11.50;;;6.40;;
47259;SDS011;32999;52.412;4.890;2022-11-13T03:09:41;12.55;;;6.68;;
47259;SDS011;32999;52.412;4.890;2022-11-13T03:14:43;17.50;;;6.85;;
47259;SDS011;32999;52.412;4.890;2022-11-13T03:19:45;14.05;;;6.97;;
47259;SDS011;32999;52.412;4.890;2022-11-13T03:24:48;12.63;;;6.60;;
47259;SDS011;32999;52.412;4.890;2022-11-13T03:29:59;15.00;;;7.45;;
47259;SDS011;32999;52.412;4.890;2022-11-13T03:35:00;11.95;;;6.90;;
47259;SDS011;32999;52.412;4.890;2022-11-13T03:40:04;12.60;;;6.75;;
47259;SDS011;32999;52.412;4.890;2022-11-13T03:45:07;13.15;;;7.07;;
47259;SDS011;32999;52.412;4.890;2022-11-13T03:50:09;12.13;;;6.93;;
47259;SDS011;32999;52.412;4.890;2022-11-13T03:55:12;14.20;;;6.60;;
47259;SDS011;32999;52.412;4.890;2022-11-13T04:00:15;15.48;;;7.53;;
47259;SDS011;32999;52.412;4.890;2022-11-13T04:05:17;14.27;;;7.32;;
47259;SDS011;32999;52.412;4.890;2022-11-13T04:10:20;12.55;;;6.70;;
47259;SDS011;32999;52.412;4.890;2022-11-13T04:15:22;13.88;;;6.57;;
47259;SDS011;32999;52.412;4.890;2022-11-13T04:20:23;15.60;;;6.47;;
47259;SDS011;32999;52.412;4.890;2022-11-13T04:25:28;15.70;;;6.78;;
47259;SDS011;32999;52.412;4.890;2022-11-13T04:30:37;13.38;;;6.72;;
47259;SDS011;32999;52.412;4.890;2022-11-13T04:35:39;13.45;;;7.45;;
47259;SDS011;32999;52.412;4.890;2022-11-13T04:40:50;13.10;;;6.20;;
47259;SDS011;32999;52.412;4.890;2022-11-13T04:46:12;14.98;;;7.43;;
47259;SDS011;32999;52.412;4.890;2022-11-13T04:51:14;11.00;;;6.93;;
47259;SDS011;32999;52.412;4.890;2022-11-13T04:56:17;12.52;;;6.85;;
47259;SDS011;32999;52.412;4.890;2022-11-13T05:01:22;11.10;;;6.50;;
47259;SDS011;32999;52.412;4.890;2022-11-13T05:06:24;10.90;;;6.60;;
47259;SDS011;32999;52.412;4.890;2022-11-13T05:11:27;12.63;;;7.43;;
47259;SDS011;32999;52.412;4.890;2022-11-13T05:16:29;10.88;;;6.38;;
47259;SDS011;32999;52.412;4.890;2022-11-13T05:21:31;14.30;;;7.38;;
47259;SDS011;32999;52.412;4.890;2022-11-13T05:26:35;11.07;;;6.70;;
47259;SDS011;32999;52.412;4.890;2022-11-13T05:31:37;12.05;;;6.68;;
47259;SDS011;32999;52.412;4.890;2022-11-13T05:36:39;11.40;;;6.60;;
47259;SDS011;32999;52.412;4.890;2022-11-13T05:41:43;15.30;;;7.82;;
47259;SDS011;32999;52.412;4.890;2022-11-13T05:46:46;12.45;;;7.78;;
47259;SDS011;32999;52.412;4.890;2022-11-13T05:57:07;15.20;;;8.00;;
47259;SDS011;32999;52.412;4.890;2022-11-13T06:02:19;14.73;;;8.18;;
47259;SDS011;32999;52.412;4.890;2022-11-13T06:07:22;17.15;;;8.65;;
47259;SDS011;32999;52.412;4.890;2022-11-13T06:18:25;13.30;;;8.10;;
47259;SDS011;32999;52.412;4.890;2022-11-13T07:41:46;14.63;;;9.10;;
47259;SDS011;32999;52.412;4.890;2022-11-13T07:46:52;12.82;;;8.63;;
47259;SDS011;32999;52.412;4.890;2022-11-13T07:51:54;15.18;;;9.85;;
47259;SDS011;32999;52.412;4.890;2022-11-13T07:56:55;20.73;;;9.07;;
47259;SDS011;32999;52.412;4.890;2022-11-13T08:01:58;14.27;;;10.45;;
47259;SDS011;32999;52.412;4.890;2022-11-13T08:07:00;15.82;;;9.00;;
47259;SDS011;32999;52.412;4.890;2022-11-13T08:12:02;14.00;;;9.55;;
47259;SDS011;32999;52.412;4.890;2022-11-13T08:17:05;12.40;;;8.95;;
47259;SDS011;32999;52.412;4.890;2022-11-13T08:22:07;15.65;;;10.40;;
47259;SDS011;32999;52.412;4.890;2022-11-13T08:27:09;15.25;;;10.13;;
47259;SDS011;32999;52.412;4.890;2022-11-13T08:32:14;15.55;;;10.65;;
47259;SDS011;32999;52.412;4.890;2022-11-13T08:37:16;16.20;;;9.75;;
47259;SDS011;32999;52.412;4.890;2022-11-13T08:42:18;12.25;;;9.13;;
47259;SDS011;32999;52.412;4.890;2022-11-13T08:47:21;14.88;;;9.77;;
47259;SDS011;32999;52.412;4.890;2022-11-13T08:52:23;12.90;;;9.38;;
47259;SDS011;32999;52.412;4.890;2022-11-13T08:57:24;13.32;;;9.40;;
47259;SDS011;32999;52.412;4.890;2022-11-13T09:02:27;13.95;;;8.95;;
47259;SDS011;32999;52.412;4.890;2022-11-13T09:07:29;11.70;;;8.80;;
47259;SDS011;32999;52.412;4.890;2022-11-13T09:12:31;11.77;;;7.60;;
47259;SDS011;32999;52.412;4.890;2022-11-13T09:17:34;10.93;;;8.48;;
47259;SDS011;32999;52.412;4.890;2022-11-13T09:22:36;11.75;;;7.97;;
47259;SDS011;32999;52.412;4.890;2022-11-13T09:27:37;11.63;;;8.18;;
47259;SDS011;32999;52.412;4.890;2022-11-13T09:32:40;11.82;;;8.05;;
47259;SDS011;32999;52.412;4.890;2022-11-13T09:37:42;8.75;;;6.10;;
47259;SDS011;32999;52.412;4.890;2022-11-13T09:42:44;9.25;;;5.82;;
47259;SDS011;32999;52.412;4.890;2022-11-13T09:47:47;9.93;;;5.90;;
47259;SDS011;32999;52.412;4.890;2022-11-13T09:52:52;10.95;;;5.25;;
47259;SDS011;32999;52.412;4.890;2022-11-13T09:57:55;7.22;;;5.50;;
47259;SDS011;32999;52.412;4.890;2022-11-13T10:03:10;7.25;;;5.63;;
47259;SDS011;32999;52.412;4.890;2022-11-13T10:08:24;6.28;;;4.50;;
47259;SDS011;32999;52.412;4.890;2022-11-13T10:13:30;6.05;;;4.15;;
47259;SDS011;32999;52.412;4.890;2022-11-13T10:18:38;8.68;;;4.05;;
47259;SDS011;32999;52.412;4.890;2022-11-13T10:23:40;5.13;;;4.10;;
47259;SDS011;32999;52.412;4.890;2022-11-13T10:28:44;4.72;;;3.45;;
47259;SDS011;32999;52.412;4.890;2022-11-13T10:33:48;8.18;;;3.70;;
47259;SDS011;32999;52.412;4.890;2022-11-13T10:43:57;4.55;;;2.83;;
47259;SDS011;32999;52.412;4.890;2022-11-13T10:49:11;4.53;;;2.67;;
47259;SDS011;32999;52.412;4.890;2022-11-13T10:54:18;4.70;;;2.83;;
47259;SDS011;32999;52.412;4.890;2022-11-13T10:59:23;4.65;;;2.58;;
47259;SDS011;32999;52.412;4.890;2022-11-13T11:04:27;5.28;;;2.42;;
47259;SDS011;32999;52.412;4.890;2022-11-13T11:09:29;3.53;;;2.78;;
47259;SDS011;32999;52.412;4.890;2022-11-13T11:14:34;3.20;;;2.30;;
47259;SDS011;32999;52.412;4.890;2022-11-13T11:19:42;4.18;;;2.80;;
47259;SDS011;32999;52.412;4.890;2022-11-13T11:24:49;5.32;;;2.90;;
47259;SDS011;32999;52.412;4.890;2022-11-13T11:29:58;4.00;;;2.38;;
47259;SDS011;32999;52.412;4.890;2022-11-13T11:35:06;5.20;;;2.70;;
47259;SDS011;32999;52.412;4.890;2022-11-13T11:40:16;5.28;;;2.55;;
47259;SDS011;32999;52.412;4.890;2022-11-13T11:45:25;3.20;;;2.30;;
47259;SDS011;32999;52.412;4.890;2022-11-13T11:50:34;3.97;;;2.97;;
47259;SDS011;32999;52.412;4.890;2022-11-13T11:55:49;4.15;;;3.00;;
47259;SDS011;32999;52.412;4.890;2022-11-13T12:01:02;4.45;;;2.90;;
47259;SDS011;32999;52.412;4.890;2022-11-13T12:06:11;6.18;;;3.47;;
47259;SDS011;32999;52.412;4.890;2022-11-13T12:11:25;5.68;;;3.67;;
47259;SDS011;32999;52.412;4.890;2022-11-13T12:16:34;6.75;;;3.80;;
47259;SDS011;32999;52.412;4.890;2022-11-13T12:21:46;5.68;;;3.30;;
47259;SDS011;32999;52.412;4.890;2022-11-13T12:27:06;6.10;;;3.70;;
47259;SDS011;32999;52.412;4.890;2022-11-13T12:32:25;6.18;;;4.38;;
47259;SDS011;32999;52.412;4.890;2022-11-13T12:37:44;6.53;;;4.45;;
47259;SDS011;32999;52.412;4.890;2022-11-13T12:42:53;7.25;;;4.72;;
47259;SDS011;32999;52.412;4.890;2022-11-13T12:48:06;7.40;;;4.95;;
47259;SDS011;32999;52.412;4.890;2022-11-13T12:53:11;7.85;;;4.88;;
47259;SDS011;32999;52.412;4.890;2022-11-13T12:58:17;6.90;;;5.07;;
47259;SDS011;32999;52.412;4.890;2022-11-13T13:03:25;5.38;;;4.28;;
47259;SDS011;32999;52.412;4.890;2022-11-13T13:09:01;5.43;;;3.30;;
47259;SDS011;32999;52.412;4.890;2022-11-13T13:14:16;7.78;;;3.35;;
47259;SDS011;32999;52.412;4.890;2022-11-13T13:19:26;4.75;;;3.15;;
47259;SDS011;32999;52.412;4.890;2022-11-13T13:24:32;6.03;;;4.00;;
47259;SDS011;32999;52.412;4.890;2022-11-13T13:29:35;6.55;;;4.28;;
47259;SDS011;32999;52.412;4.890;2022-11-13T13:34:42;6.30;;;4.82;;
47259;SDS011;32999;52.412;4.890;2022-11-13T13:40:07;6.90;;;3.88;;
47259;SDS011;32999;52.412;4.890;2022-11-13T13:45:34;7.15;;;4.03;;
47259;SDS011;32999;52.412;4.890;2022-11-13T13:50:44;5.65;;;3.60;;
47259;SDS011;32999;52.412;4.890;2022-11-13T13:55:50;8.20;;;4.28;;
47259;SDS011;32999;52.412;4.890;2022-11-13T14:00:54;8.40;;;4.22;;
47259;SDS011;32999;52.412;4.890;2022-11-13T14:06:06;5.50;;;3.97;;
47259;SDS011;32999;52.412;4.890;2022-11-13T14:11:17;8.15;;;4.32;;
47259;SDS011;32999;52.412;4.890;2022-11-13T14:16:20;7.35;;;4.93;;
47259;SDS011;32999;52.412;4.890;2022-11-13T14:21:22;6.00;;;4.88;;
47259;SDS011;32999;52.412;4.890;2022-11-13T14:26:25;7.15;;;5.07;;
47259;SDS011;32999;52.412;4.890;2022-11-13T14:31:28;6.82;;;5.32;;
47259;SDS011;32999;52.412;4.890;2022-11-13T14:36:33;7.00;;;5.15;;
47259;SDS011;32999;52.412;4.890;2022-11-13T14:41:39;8.32;;;5.30;;
47259;SDS011;32999;52.412;4.890;2022-11-13T14:46:46;10.00;;;4.65;;
47259;SDS011;32999;52.412;4.890;2022-11-13T14:51:59;5.35;;;4.40;;
47259;SDS011;32999;52.412;4.890;2022-11-13T14:57:06;7.55;;;4.68;;
47259;SDS011;32999;52.412;4.890;2022-11-13T15:02:09;7.10;;;4.75;;
47259;SDS011;32999;52.412;4.890;2022-11-13T15:07:18;6.32;;;4.85;;
47259;SDS011;32999;52.412;4.890;2022-11-13T15:12:28;6.82;;;4.57;;
47259;SDS011;32999;52.412;4.890;2022-11-13T15:17:30;6.15;;;4.55;;
47259;SDS011;32999;52.412;4.890;2022-11-13T15:22:32;4.97;;;4.13;;
47259;SDS011;32999;52.412;4.890;2022-11-13T15:27:44;7.20;;;4.20;;
47259;SDS011;32999;52.412;4.890;2022-11-13T15:32:49;7.95;;;4.75;;
47259;SDS011;32999;52.412;4.890;2022-11-13T15:37:53;7.18;;;4.88;;
47259;SDS011;32999;52.412;4.890;2022-11-13T15:42:57;5.45;;;3.97;;
47259;SDS011;32999;52.412;4.890;2022-11-13T15:48:18;5.72;;;3.88;;
47259;SDS011;32999;52.412;4.890;2022-11-13T15:53:20;7.15;;;4.47;;
47259;SDS011;32999;52.412;4.890;2022-11-13T15:58:23;6.95;;;5.22;;
47259;SDS011;32999;52.412;4.890;2022-11-13T16:03:34;6.63;;;5.10;;
47259;SDS011;32999;52.412;4.890;2022-11-13T16:08:39;9.02;;;5.18;;
47259;SDS011;32999;52.412;4.890;2022-11-13T16:13:42;8.02;;;5.43;;
47259;SDS011;32999;52.412;4.890;2022-11-13T16:18:44;10.60;;;6.22;;
47259;SDS011;32999;52.412;4.890;2022-11-13T16:23:49;8.02;;;5.95;;
47259;SDS011;32999;52.412;4.890;2022-11-13T16:28:53;11.23;;;7.35;;
47259;SDS011;32999;52.412;4.890;2022-11-13T16:33:55;9.60;;;7.38;;
47259;SDS011;32999;52.412;4.890;2022-11-13T16:38:57;10.07;;;6.82;;
47259;SDS011;32999;52.412;4.890;2022-11-13T16:44:00;13.93;;;8.20;;
47259;SDS011;32999;52.412;4.890;2022-11-13T16:49:02;9.90;;;6.70;;
47259;SDS011;32999;52.412;4.890;2022-11-13T16:54:05;8.70;;;6.40;;
47259;SDS011;32999;52.412;4.890;2022-11-13T16:59:09;10.02;;;7.18;;
47259;SDS011;32999;52.412;4.890;2022-11-13T17:04:11;9.70;;;7.10;;
47259;SDS011;32999;52.412;4.890;2022-11-13T17:09:17;11.05;;;6.82;;
47259;SDS011;32999;52.412;4.890;2022-11-13T17:14:21;9.68;;;7.07;;
47259;SDS011;32999;52.412;4.890;2022-11-13T17:19:23;10.48;;;7.53;;
47259;SDS011;32999;52.412;4.890;2022-11-13T17:24:25;13.32;;;6.88;;
47259;SDS011;32999;52.412;4.890;2022-11-13T17:29:28;12.38;;;7.88;;
47259;SDS011;32999;52.412;4.890;2022-11-13T17:34:31;9.13;;;6.73;;
47259;SDS011;32999;52.412;4.890;2022-11-13T17:39:33;11.23;;;7.00;;
47259;SDS011;32999;52.412;4.890;2022-11-13T17:44:38;11.25;;;7.18;;
47259;SDS011;32999;52.412;4.890;2022-11-13T17:49:40;10.30;;;7.13;;
47259;SDS011;32999;52.412;4.890;2022-11-13T17:54:42;18.35;;;12.13;;
47259;SDS011;32999;52.412;4.890;2022-11-13T17:59:45;12.13;;;8.90;;
47259;SDS011;32999;52.412;4.890;2022-11-13T18:04:47;10.88;;;7.55;;
47259;SDS011;32999;52.412;4.890;2022-11-13T18:09:49;10.43;;;7.43;;
47259;SDS011;32999;52.412;4.890;2022-11-13T18:15:24;9.38;;;7.28;;
47259;SDS011;32999;52.412;4.890;2022-11-13T18:20:26;9.77;;;8.25;;
47259;SDS011;32999;52.412;4.890;2022-11-13T18:25:29;11.73;;;7.82;;
47259;SDS011;32999;52.412;4.890;2022-11-13T18:30:37;13.93;;;7.75;;
47259;SDS011;32999;52.412;4.890;2022-11-13T18:40:42;12.82;;;8.63;;
47259;SDS011;32999;52.412;4.890;2022-11-13T18:45:55;10.30;;;7.55;;
47259;SDS011;32999;52.412;4.890;2022-11-13T18:51:00;11.18;;;8.05;;
47259;SDS011;32999;52.412;4.890;2022-11-13T18:56:04;10.32;;;6.93;;
47259;SDS011;32999;52.412;4.890;2022-11-13T19:01:09;12.20;;;7.37;;
47259;SDS011;32999;52.412;4.890;2022-11-13T19:11:15;9.80;;;6.85;;
47259;SDS011;32999;52.412;4.890;2022-11-13T19:16:21;10.97;;;8.17;;
47259;SDS011;32999;52.412;4.890;2022-11-13T19:21:26;36.50;;;20.63;;
47259;SDS011;32999;52.412;4.890;2022-11-13T19:26:29;26.13;;;16.80;;
47259;SDS011;32999;52.412;4.890;2022-11-13T19:31:36;16.83;;;10.65;;
47259;SDS011;32999;52.412;4.890;2022-11-13T19:36:39;14.55;;;9.38;;
47259;SDS011;32999;52.412;4.890;2022-11-13T19:41:45;14.35;;;9.27;;
47259;SDS011;32999;52.412;4.890;2022-11-13T19:46:59;12.25;;;9.05;;
47259;SDS011;32999;52.412;4.890;2022-11-13T19:52:01;16.47;;;9.67;;
47259;SDS011;32999;52.412;4.890;2022-11-13T19:57:03;14.45;;;9.15;;
47259;SDS011;32999;52.412;4.890;2022-11-13T20:02:08;13.00;;;8.55;;
47259;SDS011;32999;52.412;4.890;2022-11-13T20:07:11;13.07;;;8.57;;
47259;SDS011;32999;52.412;4.890;2022-11-13T20:12:26;16.38;;;8.70;;
47259;SDS011;32999;52.412;4.890;2022-11-13T20:17:30;15.82;;;9.15;;
47259;SDS011;32999;52.412;4.890;2022-11-13T20:22:33;17.23;;;10.45;;
47259;SDS011;32999;52.412;4.890;2022-11-13T20:27:39;22.23;;;12.63;;
47259;SDS011;32999;52.412;4.890;2022-11-13T20:33:27;19.88;;;11.38;;
47259;SDS011;32999;52.412;4.890;2022-11-13T20:39:58;20.20;;;12.48;;
47259;SDS011;32999;52.412;4.890;2022-11-13T22:21:53;12.48;;;7.80;;
